Time;durP1;ratioP1;P1;durP2;ratioP2;P2;SDS_P1;SDS_P2;PMS_P1;PMS_P2;Temp;Humidity;BMP_temperature;BMP_pressure;BME280_temperature;BME280_humidity;BME280_pressure;Samples;Min_cycle;Max_cycle;Signal;HPM_P1;HPM_P2
2023/09/27 00:00:17;;;;;;;;;11.40;11.20;;;;;18.06;40.06;99841.28;4973675;28;8861;-74
2023/09/27 00:03:06;;;;;;;;;11.40;11.40;;;;;18.03;40.08;99841.41;4971464;28;8859;-73
2023/09/27 00:05:36;;;;;;;;;14.40;13.00;;;;;17.95;39.90;99842.63;4953677;28;9324;-74
2023/09/27 00:08:06;;;;;;;;;11.40;11.40;;;;;18.00;39.91;99838.91;4953725;28;8948;-77
2023/09/27 00:10:35;;;;;;;;;9.80;9.80;;;;;17.95;39.78;99837.31;4919202;28;8881;-74
2023/09/27 00:13:04;;;;;;;;;10.80;10.80;;;;;17.75;39.36;99843.56;4960955;28;8848;-73
2023/09/27 00:15:34;;;;;;;;;11.40;10.60;;;;;17.77;39.53;99833.72;4971167;28;8883;-72
2023/09/27 00:18:04;;;;;;;;;9.40;9.40;;;;;17.83;39.52;99832.56;4971430;28;8875;-74
2023/09/27 00:20:33;;;;;;;;;11.20;10.80;;;;;17.90;39.27;99827.84;4970474;28;9000;-74
2023/09/27 00:23:02;;;;;;;;;12.20;10.00;;;;;17.84;39.55;99828.97;4972339;28;8856;-73
2023/09/27 00:25:31;;;;;;;;;11.40;10.00;;;;;17.91;39.01;99821.56;4972148;28;8945;-75
2023/09/27 00:28:00;;;;;;;;;10.60;10.60;;;;;17.98;39.08;99830.97;4973301;28;8867;-75
2023/09/27 00:30:29;;;;;;;;;12.00;11.00;;;;;18.01;38.81;99832.66;4975455;28;8852;-74
2023/09/27 00:33:00;;;;;;;;;10.40;9.80;;;;;17.88;39.20;99825.25;4987154;28;8883;-75
2023/09/27 00:35:29;;;;;;;;;10.20;10.20;;;;;17.94;39.13;99827.59;4934901;28;8843;-75
2023/09/27 00:37:59;;;;;;;;;10.40;9.80;;;;;17.91;39.33;99830.44;4954743;28;8878;-74
2023/09/27 00:40:27;;;;;;;;;12.40;10.80;;;;;17.83;39.79;99823.72;4937688;28;8895;-74
2023/09/27 00:42:58;;;;;;;;;12.20;11.20;;;;;17.90;39.80;99823.38;4968658;28;8890;-73
2023/09/27 00:45:26;;;;;;;;;12.00;11.60;;;;;17.93;39.84;99823.22;4970547;28;9687;-72
2023/09/27 00:47:57;;;;;;;;;13.00;12.60;;;;;17.72;40.06;99821.56;4970620;28;8859;-73
2023/09/27 00:50:27;;;;;;;;;9.80;9.80;;;;;17.88;39.82;99819.06;4924856;28;8895;-74
2023/09/27 00:52:56;;;;;;;;;7.60;7.60;;;;;17.73;40.27;99831.28;4953357;28;8895;-73
2023/09/27 00:55:25;;;;;;;;;10.60;10.40;;;;;17.75;39.92;99819.63;4972140;28;8871;-74
2023/09/27 00:57:54;;;;;;;;;13.60;13.00;;;;;17.64;40.52;99826.38;4970305;28;8866;-72
2023/09/27 01:00:23;;;;;;;;;10.40;9.80;;;;;17.61;40.38;99821.19;4982447;28;8856;-73
2023/09/27 01:02:54;;;;;;;;;10.00;10.00;;;;;17.58;40.36;99817.75;4971528;28;8847;-77
2023/09/27 01:05:24;;;;;;;;;10.00;10.00;;;;;17.61;40.35;99829.16;4970354;28;8852;-75
2023/09/27 01:07:54;;;;;;;;;10.00;8.60;;;;;17.50;40.41;99824.34;4974372;28;8913;-75
2023/09/27 01:10:23;;;;;;;;;8.40;7.80;;;;;17.36;40.76;99832.94;4971187;28;8868;-73
2023/09/27 01:12:54;;;;;;;;;9.80;9.80;;;;;17.46;40.55;99826.28;4970117;28;8953;-74
2023/09/27 01:15:23;;;;;;;;;10.20;10.20;;;;;17.47;40.58;99830.66;4967504;28;8902;-75
2023/09/27 01:17:55;;;;;;;;;10.00;10.00;;;;;17.51;40.71;99828.72;4951435;28;8921;-74
2023/09/27 01:20:25;;;;;;;;;10.20;10.20;;;;;17.25;40.92;99830.78;4952723;28;8879;-74
2023/09/27 01:22:59;;;;;;;;;10.40;9.80;;;;;17.43;40.77;99823.75;4968532;28;9696;-73
2023/09/27 01:25:29;;;;;;;;;10.40;9.80;;;;;17.48;40.87;99821.75;4967510;28;8981;-73
2023/09/27 01:27:59;;;;;;;;;9.60;9.60;;;;;17.37;40.98;99830.22;4942482;28;8849;-74
2023/09/27 01:30:32;;;;;;;;;11.00;11.00;;;;;17.45;41.03;99816.56;4968274;28;9029;-74
2023/09/27 01:33:05;;;;;;;;;13.20;12.40;;;;;17.37;41.28;99819.56;4952076;28;8849;-75
2023/09/27 01:35:37;;;;;;;;;4.80;4.60;;;;;17.36;41.11;99817.00;4968260;28;8867;-76
2023/09/27 01:38:08;;;;;;;;;10.60;10.60;;;;;17.49;41.01;99823.47;4949514;28;8853;-74
2023/09/27 01:40:40;;;;;;;;;13.20;12.60;;;;;17.34;41.14;99813.53;4920435;28;8863;-73
2023/09/27 01:43:09;;;;;;;;;11.60;11.60;;;;;17.47;40.73;99811.19;4966465;28;8851;-73
2023/09/27 01:45:38;;;;;;;;;12.20;11.80;;;;;17.34;41.09;99822.41;4965835;28;8891;-73
2023/09/27 01:48:07;;;;;;;;;11.80;11.40;;;;;17.27;41.17;99820.06;4971219;28;8863;-72
2023/09/27 01:50:37;;;;;;;;;12.80;11.00;;;;;17.38;41.03;99831.94;4968907;28;8871;-74
2023/09/27 01:53:08;;;;;;;;;11.60;9.20;;;;;17.37;41.04;99829.34;4970549;28;8977;-72
2023/09/27 01:55:37;;;;;;;;;11.60;10.20;;;;;17.46;40.99;99828.94;4969273;28;8922;-74
2023/09/27 01:58:06;;;;;;;;;11.40;11.40;;;;;17.56;40.57;99830.25;4972796;28;8953;-76
2023/09/27 02:00:35;;;;;;;;;11.00;11.00;;;;;17.63;40.44;99820.22;4952703;28;8876;-74
2023/09/27 02:03:05;;;;;;;;;11.80;11.60;;;;;17.62;40.74;99828.25;4969609;28;8937;-76
2023/09/27 02:05:34;;;;;;;;;9.40;8.80;;;;;17.56;41.14;99832.03;4968378;28;9025;-73
2023/09/27 02:08:03;;;;;;;;;13.00;11.00;;;;;17.55;41.03;99825.00;4933678;28;8900;-74
2023/09/27 02:10:34;;;;;;;;;9.60;9.60;;;;;17.48;41.12;99826.22;4951415;28;9012;-73
2023/09/27 02:13:03;;;;;;;;;6.00;6.00;;;;;17.59;40.70;99826.59;4902239;28;8858;-78
2023/09/27 02:15:31;;;;;;;;;11.20;9.80;;;;;17.55;40.68;99823.22;4965894;28;8886;-73
2023/09/27 02:18:01;;;;;;;;;12.40;11.60;;;;;17.57;40.74;99826.66;4965448;28;8875;-74
2023/09/27 02:20:29;;;;;;;;;8.60;7.80;;;;;17.57;41.01;99825.78;4970687;28;8867;-75
2023/09/27 02:22:59;;;;;;;;;9.60;6.20;;;;;17.63;40.76;99829.94;4970738;28;8898;-72
2023/09/27 02:25:27;;;;;;;;;10.60;10.60;;;;;17.48;41.19;99823.56;4969163;28;8915;-76
2023/09/27 02:27:58;;;;;;;;;11.40;10.40;;;;;17.49;41.12;99820.81;4968836;28;8894;-73
2023/09/27 02:30:26;;;;;;;;;11.80;11.80;;;;;17.51;41.18;99826.94;4970488;28;9001;-75
2023/09/27 02:32:55;;;;;;;;;14.40;12.20;;;;;17.55;40.96;99825.88;4967993;28;8913;-76
2023/09/27 02:35:24;;;;;;;;;12.80;11.60;;;;;17.62;40.77;99831.75;4968689;28;8937;-75
2023/09/27 02:37:53;;;;;;;;;10.00;9.20;;;;;17.63;40.65;99824.63;4953054;28;8867;-75
2023/09/27 02:40:22;;;;;;;;;13.60;11.80;;;;;17.63;40.63;99830.84;4970546;28;8981;-76
2023/09/27 02:42:51;;;;;;;;;11.40;10.60;;;;;17.65;40.90;99833.44;4970652;28;8864;-74
2023/09/27 02:45:22;;;;;;;;;12.60;11.40;;;;;17.62;40.64;99833.56;4936889;28;8977;-72
2023/09/27 02:47:51;;;;;;;;;13.40;11.60;;;;;17.67;40.78;99836.88;4967653;28;8864;-73
2023/09/27 02:50:20;;;;;;;;;12.80;12.40;;;;;17.72;40.61;99829.53;4974441;28;9638;-76
2023/09/27 02:52:49;;;;;;;;;13.00;13.00;;;;;17.74;40.70;99838.31;4954502;28;8896;-78
2023/09/27 02:55:18;;;;;;;;;12.60;11.80;;;;;17.67;40.63;99834.22;4986814;28;8960;-75
2023/09/27 02:57:50;;;;;;;;;10.40;8.80;;;;;17.62;40.87;99833.56;4950902;28;8868;-77
2023/09/27 03:00:26;;;;;;;;;12.40;12.40;;;;;17.58;40.85;99828.38;4932495;28;8859;-78
2023/09/27 03:02:56;;;;;;;;;11.80;11.00;;;;;17.25;41.51;99836.09;4948291;28;8941;-76
2023/09/27 03:05:25;;;;;;;;;10.20;10.00;;;;;17.20;41.48;99838.91;4950263;28;8884;-76
2023/09/27 03:07:54;;;;;;;;;11.40;11.40;;;;;17.13;41.51;99842.75;4932942;28;8894;-75
2023/09/27 03:10:23;;;;;;;;;12.00;10.80;;;;;17.13;41.74;99841.88;4931806;28;8852;-76
2023/09/27 03:12:54;;;;;;;;;11.40;11.40;;;;;16.98;41.64;99843.41;4947968;28;9043;-73
2023/09/27 03:15:22;;;;;;;;;9.00;9.00;;;;;17.11;41.63;99833.97;4931292;28;8863;-76
2023/09/27 03:17:54;;;;;;;;;11.80;11.80;;;;;16.98;41.59;99838.09;4931698;28;8898;-73
2023/09/27 03:20:22;;;;;;;;;11.40;11.00;;;;;17.03;41.32;99832.59;4962785;28;8887;-72
2023/09/27 03:22:51;;;;;;;;;12.60;11.60;;;;;16.98;41.23;99838.97;4931949;28;8954;-73
2023/09/27 03:25:20;;;;;;;;;16.20;14.20;;;;;16.87;41.20;99838.56;4931672;28;8876;-75
2023/09/27 03:27:50;;;;;;;;;13.60;11.40;;;;;16.90;41.33;99842.88;4947770;29;8852;-76
2023/09/27 03:30:19;;;;;;;;;11.80;11.00;;;;;16.85;41.26;99839.56;4916074;29;8902;-75
2023/09/27 03:32:48;;;;;;;;;10.60;10.60;;;;;16.78;41.41;99831.84;4948231;29;8957;-73
2023/09/27 03:35:18;;;;;;;;;10.40;9.60;;;;;16.80;41.15;99843.28;4948220;29;8987;-76
2023/09/27 03:37:47;;;;;;;;;10.80;10.00;;;;;16.96;40.91;99832.84;4932063;28;8851;-73
2023/09/27 03:40:16;;;;;;;;;10.60;10.60;;;;;16.95;40.76;99833.78;4935061;28;8971;-75
2023/09/27 03:42:46;;;;;;;;;11.80;10.00;;;;;16.82;40.92;99829.94;4967898;28;9634;-75
2023/09/27 03:45:16;;;;;;;;;14.80;14.00;;;;;16.91;40.40;99829.53;4968069;28;8859;-74
2023/09/27 03:47:47;;;;;;;;;12.60;12.00;;;;;16.75;40.87;99833.78;4969252;28;8859;-75
2023/09/27 03:50:21;;;;;;;;;10.80;10.60;;;;;16.85;40.60;99827.13;4968150;28;8863;-75
2023/09/27 03:52:50;;;;;;;;;10.20;10.20;;;;;16.75;40.75;99825.81;4978404;28;8980;-74
2023/09/27 03:55:19;;;;;;;;;11.20;10.40;;;;;16.88;40.63;99826.16;4970014;28;8865;-75
2023/09/27 03:57:48;;;;;;;;;12.00;12.00;;;;;16.75;40.72;99823.16;4970004;28;8951;-73
2023/09/27 04:00:17;;;;;;;;;9.80;8.20;;;;;16.77;40.81;99823.94;4952766;28;9049;-74
2023/09/27 04:02:49;;;;;;;;;14.00;14.00;;;;;16.79;40.71;99825.59;4966445;28;8979;-75
2023/09/27 04:05:22;;;;;;;;;13.40;13.20;;;;;16.82;40.58;99824.63;4950443;28;8868;-75
2023/09/27 04:07:53;;;;;;;;;10.80;10.20;;;;;16.72;40.73;99826.81;4972462;28;8955;-74
2023/09/27 04:10:24;;;;;;;;;11.80;10.40;;;;;16.77;40.50;99823.94;4986128;28;9022;-74
2023/09/27 04:12:53;;;;;;;;;10.60;10.60;;;;;16.86;40.26;99823.56;4985737;28;8845;-77
2023/09/27 04:15:22;;;;;;;;;8.80;8.80;;;;;16.93;40.20;99832.13;4970163;28;8873;-74
2023/09/27 04:17:51;;;;;;;;;12.60;12.60;;;;;16.86;39.86;99828.00;4992986;28;8873;-73
2023/09/27 04:20:21;;;;;;;;;12.00;9.40;;;;;17.03;39.78;99841.44;4975989;28;8871;-74
2023/09/27 04:22:52;;;;;;;;;10.80;9.80;;;;;17.10;39.55;99839.38;4970407;28;8855;-73
2023/09/27 04:25:21;;;;;;;;;13.20;13.20;;;;;17.07;39.93;99837.69;4977459;28;8875;-76
2023/09/27 04:27:51;;;;;;;;;19.40;17.40;;;;;17.16;39.48;99836.44;4969243;28;8871;-77
2023/09/27 04:30:22;;;;;;;;;12.40;11.40;;;;;17.19;39.50;99838.94;4969688;28;8871;-76
2023/09/27 04:32:51;;;;;;;;;14.40;11.60;;;;;17.07;39.71;99839.50;4953667;28;8856;-74
2023/09/27 04:35:21;;;;;;;;;7.60;7.40;;;;;16.92;39.86;99841.03;4970224;28;8863;-74
2023/09/27 04:37:53;;;;;;;;;9.60;9.60;;;;;17.07;39.80;99852.78;4969876;28;8864;-78
2023/09/27 04:40:21;;;;;;;;;10.40;9.40;;;;;17.16;39.53;99839.97;4969573;28;8914;-75
2023/09/27 04:42:50;;;;;;;;;12.60;10.80;;;;;17.12;39.64;99851.66;4983123;28;8918;-74
2023/09/27 04:45:19;;;;;;;;;9.40;9.40;;;;;17.18;39.37;99850.53;4959504;28;8877;-75
2023/09/27 04:47:49;;;;;;;;;14.20;13.60;;;;;17.28;39.31;99846.56;4974204;28;8865;-74
2023/09/27 04:50:18;;;;;;;;;13.40;12.80;;;;;17.33;39.03;99860.50;4969916;28;8875;-78
2023/09/27 04:52:47;;;;;;;;;10.60;10.60;;;;;17.35;39.09;99848.03;4969699;28;8886;-77
2023/09/27 04:55:18;;;;;;;;;16.20;12.00;;;;;17.33;39.07;99854.34;4969661;28;8867;-80
2023/09/27 04:57:47;;;;;;;;;9.80;9.20;;;;;17.26;39.25;99848.41;4975752;28;9591;-77
2023/09/27 05:00:18;;;;;;;;;11.00;10.20;;;;;17.38;39.25;99849.66;4954700;28;8841;-76
2023/09/27 05:02:49;;;;;;;;;10.00;9.80;;;;;17.49;38.90;99849.19;4954123;28;8905;-73
2023/09/27 05:05:18;;;;;;;;;9.20;9.00;;;;;17.43;39.24;99858.31;4968734;28;8982;-75
2023/09/27 05:07:48;;;;;;;;;11.80;11.80;;;;;17.46;38.92;99859.97;4968854;28;8965;-75
2023/09/27 05:10:18;;;;;;;;;11.00;11.00;;;;;17.56;38.81;99854.16;4968288;28;8902;-76
2023/09/27 05:12:47;;;;;;;;;7.80;4.80;;;;;17.57;38.73;99863.88;4968133;28;8871;-76
2023/09/27 05:15:17;;;;;;;;;10.20;9.80;;;;;17.51;38.95;99864.16;4968869;28;9004;-76
2023/09/27 05:17:46;;;;;;;;;8.80;8.80;;;;;17.65;38.53;99866.19;4952775;28;8875;-74
2023/09/27 05:20:15;;;;;;;;;11.80;11.80;;;;;17.72;38.18;99864.09;4968702;28;9065;-78
2023/09/27 05:22:44;;;;;;;;;12.80;10.60;;;;;17.86;38.22;99856.38;4952364;28;8860;-75
2023/09/27 05:25:14;;;;;;;;;12.20;11.60;;;;;17.81;37.99;99869.00;4968512;28;8851;-73
2023/09/27 05:27:44;;;;;;;;;9.80;9.80;;;;;17.91;38.02;99865.00;4967717;28;8879;-75
2023/09/27 05:30:15;;;;;;;;;9.20;9.00;;;;;17.99;37.85;99869.97;4977845;28;8837;-75
2023/09/27 05:32:46;;;;;;;;;10.00;10.00;;;;;18.11;37.68;99866.75;4968160;28;8864;-78
2023/09/27 05:35:15;;;;;;;;;11.80;11.80;;;;;18.20;37.64;99875.25;4951887;28;8883;-77
2023/09/27 05:37:44;;;;;;;;;11.80;11.80;;;;;18.27;37.46;99874.00;4968113;28;9014;-73
2023/09/27 05:40:13;;;;;;;;;15.60;12.40;;;;;18.24;37.39;99869.69;4968133;28;9644;-76
2023/09/27 05:42:44;;;;;;;;;10.00;10.00;;;;;18.37;37.33;99880.63;4968279;28;8951;-76
2023/09/27 05:45:13;;;;;;;;;14.60;13.40;;;;;18.31;37.34;99879.09;4967272;28;8887;-77
2023/09/27 05:47:43;;;;;;;;;13.40;11.60;;;;;18.32;37.23;99875.50;4972676;28;8871;-77
2023/09/27 05:50:12;;;;;;;;;12.20;12.20;;;;;18.53;36.90;99872.72;4968433;28;8982;-76
2023/09/27 05:52:43;;;;;;;;;15.20;10.40;;;;;18.61;36.77;99870.56;4967824;28;8887;-78
2023/09/27 05:55:15;;;;;;;;;10.40;9.40;;;;;18.69;36.57;99873.72;4964452;28;8875;-75
2023/09/27 05:57:49;;;;;;;;;14.40;10.60;;;;;18.89;36.27;99874.53;4971044;28;8883;-75
2023/09/27 06:00:26;;;;;;;;;12.40;11.00;;;;;18.88;36.43;99876.34;4957904;28;9612;-78
2023/09/27 06:02:55;;;;;;;;;13.60;11.00;;;;;19.00;36.06;99874.88;4967133;28;8871;-76
2023/09/27 07:46:06;;;;;;;;;14.80;12.40;;;;;21.47;32.51;99910.19;4956479;28;8953;-76
2023/09/27 07:48:39;;;;;;;;;12.80;12.00;;;;;21.60;31.91;99924.56;4968716;28;8883;-75
2023/09/27 07:51:11;;;;;;;;;11.80;11.40;;;;;21.69;32.17;99917.78;4969533;28;8922;-78
2023/09/27 07:53:41;;;;;;;;;14.80;13.00;;;;;21.88;31.87;99917.53;4972700;28;8903;-77
2023/09/27 07:56:19;;;;;;;;;15.20;13.40;;;;;21.84;31.58;99914.19;4972666;28;8966;-76
2023/09/27 07:58:51;;;;;;;;;13.80;12.60;;;;;21.93;32.13;99926.09;4973045;28;8995;-78
2023/09/27 08:01:23;;;;;;;;;13.40;12.20;;;;;22.06;31.76;99920.84;4972981;28;8856;-77
2023/09/27 08:03:53;;;;;;;;;10.20;10.20;;;;;22.07;31.52;99929.72;4972972;28;9665;-78
2023/09/27 08:06:23;;;;;;;;;12.20;11.00;;;;;21.99;31.62;99936.47;4972793;28;8868;-77
2023/09/27 08:08:52;;;;;;;;;11.80;11.80;;;;;22.10;30.95;99927.72;4954702;28;8851;-76
2023/09/27 08:11:21;;;;;;;;;12.40;12.00;;;;;22.05;31.01;99929.81;4955032;28;8856;-76
2023/09/27 08:13:50;;;;;;;;;8.60;7.80;;;;;22.16;31.17;99927.34;4972891;28;8894;-79
2023/09/27 08:16:19;;;;;;;;;12.40;10.40;;;;;22.36;31.45;99927.94;4971909;28;8882;-76
2023/09/27 08:18:49;;;;;;;;;8.40;6.20;;;;;22.55;30.70;99927.59;4973219;28;8875;-77
2023/09/27 08:21:18;;;;;;;;;13.80;13.80;;;;;22.53;30.92;99927.69;4972646;28;9778;-69
2023/09/27 08:23:47;;;;;;;;;15.60;14.60;;;;;22.65;30.38;99928.72;4938435;28;8876;-69
2023/09/27 08:26:16;;;;;;;;;12.20;12.20;;;;;22.71;30.82;99927.44;4972145;28;8890;-68
2023/09/27 08:28:45;;;;;;;;;15.80;15.80;;;;;22.67;30.74;99929.47;4972016;28;8965;-69
2023/09/27 08:31:14;;;;;;;;;14.20;13.60;;;;;22.86;30.89;99912.16;4971919;28;9080;-68
2023/09/27 08:33:43;;;;;;;;;12.80;11.60;;;;;22.99;30.76;99922.00;4972214;28;8872;-67
2023/09/27 08:36:13;;;;;;;;;13.00;12.00;;;;;22.75;30.80;99924.47;4972018;28;8879;-68
2023/09/27 08:38:42;;;;;;;;;14.60;14.20;;;;;22.68;30.59;99915.13;4972067;28;8868;-70
2023/09/27 08:41:13;;;;;;;;;12.80;12.20;;;;;22.47;31.09;99920.06;4971722;28;8883;-69
2023/09/27 08:43:42;;;;;;;;;14.20;14.20;;;;;22.65;31.05;99930.53;4972113;28;8868;-68
2023/09/27 08:46:11;;;;;;;;;13.80;12.80;;;;;22.58;31.07;99914.88;4970703;28;9650;-68
2023/09/27 08:48:41;;;;;;;;;13.80;13.80;;;;;22.60;31.03;99912.09;4953241;28;8856;-69
2023/09/27 08:51:10;;;;;;;;;13.00;12.60;;;;;22.61;31.25;99909.28;4966643;28;8982;-75
2023/09/27 08:53:42;;;;;;;;;10.80;10.80;;;;;22.63;31.13;99916.38;4972213;28;8878;-75
2023/09/27 08:56:16;;;;;;;;;11.60;11.00;;;;;22.50;31.18;99911.81;4972181;28;8867;-77
2023/09/27 08:58:49;;;;;;;;;12.00;12.00;;;;;22.51;31.21;99908.19;4972129;28;8950;-76
2023/09/27 09:01:19;;;;;;;;;12.00;12.00;;;;;22.64;31.34;99912.72;4971569;28;8871;-78
2023/09/27 09:03:49;;;;;;;;;11.80;11.80;;;;;22.71;30.61;99911.38;4961597;28;8870;-76
2023/09/27 09:06:19;;;;;;;;;12.20;11.60;;;;;22.80;31.35;99913.44;4958122;28;8871;-76
2023/09/27 09:08:50;;;;;;;;;11.60;11.60;;;;;22.84;30.84;99919.47;4971566;28;8892;-77
2023/09/27 09:11:19;;;;;;;;;14.80;14.40;;;;;22.81;31.08;99916.03;4953908;28;8891;-76
2023/09/27 09:13:57;;;;;;;;;14.40;12.80;;;;;22.80;30.82;99911.59;4971591;28;8887;-77
2023/09/27 09:16:25;;;;;;;;;15.00;12.00;;;;;22.87;31.11;99925.47;4970814;28;8917;-78
2023/09/27 09:18:55;;;;;;;;;16.80;15.40;;;;;23.07;31.02;99913.47;4982976;28;8864;-71
2023/09/27 09:21:25;;;;;;;;;14.40;12.80;;;;;23.06;30.98;99919.78;4971432;28;8851;-73
2023/09/27 09:23:56;;;;;;;;;14.60;13.80;;;;;22.94;30.68;99904.50;4953091;28;8868;-74
2023/09/27 09:26:30;;;;;;;;;16.00;14.40;;;;;22.96;31.10;99911.50;4953767;28;8855;-71
2023/09/27 09:29:00;;;;;;;;;15.20;15.00;;;;;22.92;31.09;99917.16;4990265;28;8953;-71
2023/09/27 09:31:31;;;;;;;;;12.20;12.20;;;;;22.91;31.13;99916.28;4976444;28;8867;-71
2023/09/27 09:34:03;;;;;;;;;12.60;12.60;;;;;22.96;31.24;99902.59;4971430;28;9586;-72
2023/09/27 09:36:32;;;;;;;;;14.80;14.80;;;;;23.24;30.78;99914.97;4971529;28;8897;-74
2023/09/27 09:39:13;;;;;;;;;14.80;14.80;;;;;22.80;30.98;99906.25;4971311;28;8875;-71
2023/09/27 09:41:46;;;;;;;;;15.80;15.80;;;;;23.08;30.48;99908.94;4971079;28;8925;-71
2023/09/27 09:44:20;;;;;;;;;12.40;12.40;;;;;23.25;30.74;99907.81;4971400;28;8867;-72
2023/09/27 09:46:51;;;;;;;;;16.00;14.40;;;;;23.16;30.97;99899.41;4936816;28;8864;-71
2023/09/27 09:49:22;;;;;;;;;17.20;15.80;;;;;23.34;30.33;99907.19;4969393;28;8855;-70
2023/09/27 09:51:52;;;;;;;;;12.20;12.20;;;;;23.51;30.73;99916.75;4971371;28;8961;-71
2023/09/27 09:54:29;;;;;;;;;15.20;13.60;;;;;23.23;30.54;99899.00;4970989;28;8875;-70
2023/09/27 09:56:58;;;;;;;;;17.20;15.00;;;;;23.36;30.65;99898.06;4969771;28;9006;-72
2023/09/27 10:00:03;;;;;;;;;11.60;10.40;;;;;23.53;30.75;99898.75;4970951;28;8836;-71
2023/09/27 10:02:41;;;;;;;;;16.00;15.20;;;;;23.57;30.46;99897.56;4970623;28;8875;-71
2023/09/27 10:05:13;;;;;;;;;16.80;15.20;;;;;23.47;31.05;99909.84;4970386;28;8848;-71
2023/09/27 10:07:43;;;;;;;;;16.20;15.00;;;;;23.53;30.31;99914.84;4970575;28;8867;-74
2023/09/27 10:10:14;;;;;;;;;15.00;15.00;;;;;23.44;30.91;99905.56;4970543;28;8893;-71
2023/09/27 10:12:44;;;;;;;;;15.60;14.00;;;;;23.71;30.89;99907.31;4970453;28;9692;-72
2023/09/27 10:15:17;;;;;;;;;19.00;16.40;;;;;23.89;31.07;99897.97;4970555;28;8872;-73
2023/09/27 10:17:46;;;;;;;;;13.60;11.60;;;;;23.98;30.29;99899.16;4970907;28;8909;-70
2023/09/27 10:20:20;;;;;;;;;14.80;14.80;;;;;24.20;30.88;99900.31;4974917;28;8847;-70
2023/09/27 10:22:50;;;;;;;;;15.20;13.20;;;;;24.23;29.76;99889.34;4975600;28;8864;-71
2023/09/27 10:25:36;;;;;;;;;13.80;13.40;;;;;24.45;29.26;99897.56;4970572;28;8863;-71
2023/09/27 10:28:06;;;;;;;;;14.40;14.20;;;;;24.34;29.43;99889.41;4970054;28;9610;-70
2023/09/27 10:31:09;;;;;;;;;18.00;17.00;;;;;24.34;29.65;99898.34;4968800;28;9010;-70
2023/09/27 10:33:39;;;;;;;;;16.20;15.00;;;;;24.38;29.64;99896.28;4928865;29;8873;-71
2023/09/27 10:36:31;;;;;;;;;14.00;14.00;;;;;24.21;29.24;99886.78;4913319;29;8907;-74
2023/09/27 10:39:05;;;;;;;;;18.20;17.80;;;;;24.40;28.67;99891.66;4872466;29;8900;-71
2023/09/27 10:41:44;;;;;;;;;15.80;12.20;;;;;24.65;28.63;99885.31;4827497;29;8984;-70
2023/09/27 10:44:15;;;;;;;;;13.80;13.80;;;;;24.63;29.19;99889.94;4872481;29;8919;-71
2023/09/27 10:46:45;;;;;;;;;16.80;15.20;;;;;24.89;28.51;99881.78;4872179;29;8897;-75
2023/09/27 10:49:20;;;;;;;;;17.20;16.60;;;;;24.74;27.70;99884.66;4826321;29;8909;-71
2023/09/27 10:51:49;;;;;;;;;16.20;16.00;;;;;24.63;27.38;99856.84;4872031;29;8916;-74
2023/09/27 10:54:28;;;;;;;;;17.00;16.20;;;;;24.76;27.66;99876.47;4872169;29;8899;-71
2023/09/27 10:57:00;;;;;;;;;18.00;16.80;;;;;24.53;27.83;99876.34;4872308;29;8903;-70
2023/09/27 10:59:29;;;;;;;;;17.80;17.00;;;;;24.58;27.85;99867.06;4872234;29;9000;-71
2023/09/27 11:02:00;;;;;;;;;20.20;16.60;;;;;24.58;27.96;99867.06;4827447;29;9588;-72
2023/09/27 11:04:30;;;;;;;;;17.20;16.60;;;;;24.67;27.79;99874.44;4872293;29;8884;-71
2023/09/27 11:06:59;;;;;;;;;19.20;16.00;;;;;24.79;26.94;99865.47;4872456;29;8864;-72
2023/09/27 11:09:28;;;;;;;;;16.60;16.20;;;;;24.69;27.87;99859.06;4872181;29;8920;-70
2023/09/27 11:12:00;;;;;;;;;18.80;17.80;;;;;24.95;27.80;99846.34;4860363;29;8856;-70
2023/09/27 11:14:31;;;;;;;;;14.00;12.40;;;;;25.05;27.07;99850.03;4916465;29;8895;-70
2023/09/27 11:17:23;;;;;;;;;19.40;18.20;;;;;24.98;26.58;99846.13;4962217;28;8875;-72
2023/09/27 11:19:53;;;;;;;;;14.80;14.80;;;;;25.01;26.89;99858.47;4929009;29;8881;-71
2023/09/27 11:22:26;;;;;;;;;16.60;14.20;;;;;25.10;27.04;99850.56;4928646;29;8915;-73
2023/09/27 11:24:55;;;;;;;;;17.80;17.80;;;;;25.22;26.86;99856.81;4912815;29;8876;-74
2023/09/27 11:27:25;;;;;;;;;17.00;15.00;;;;;25.45;26.05;99846.09;4908812;29;8970;-71
2023/09/27 11:29:54;;;;;;;;;15.60;15.20;;;;;25.60;26.28;99855.66;4878404;29;8905;-71
2023/09/27 11:32:23;;;;;;;;;18.40;18.40;;;;;25.88;25.74;99848.94;4909282;29;8876;-71
2023/09/27 11:34:55;;;;;;;;;19.40;19.40;;;;;25.94;25.82;99849.44;4909667;29;8860;-71
2023/09/27 11:37:25;;;;;;;;;15.80;15.20;;;;;25.89;25.79;99852.50;4909560;29;8999;-70
2023/09/27 11:39:55;;;;;;;;;15.60;15.60;;;;;26.18;25.99;99836.66;4878728;29;8895;-71
2023/09/27 11:42:27;;;;;;;;;20.40;18.60;;;;;26.29;25.40;99847.44;4909270;29;8859;-73
2023/09/27 11:45:04;;;;;;;;;17.80;17.20;;;;;26.42;24.85;99836.50;4909440;29;8893;-70
2023/09/27 11:47:45;;;;;;;;;22.00;17.00;;;;;26.36;24.77;99826.22;4903537;29;8897;-74
2023/09/27 11:50:15;;;;;;;;;16.40;14.60;;;;;26.31;24.92;99819.50;4928385;29;8899;-69
2023/09/27 11:52:46;;;;;;;;;17.60;17.60;;;;;26.58;25.02;99824.44;4928334;29;9655;-72
2023/09/27 11:55:16;;;;;;;;;17.60;17.20;;;;;26.76;24.83;99833.69;4866056;29;8972;-69
2023/09/27 11:57:47;;;;;;;;;19.80;18.00;;;;;26.50;24.69;99825.09;4925370;28;9665;-69
2023/09/27 12:00:16;;;;;;;;;16.80;16.80;;;;;26.59;24.59;99823.44;4969001;28;8986;-70
2023/09/27 12:02:45;;;;;;;;;18.60;18.60;;;;;26.86;24.14;99826.53;4968711;28;8872;-69
2023/09/27 12:05:25;;;;;;;;;18.40;17.80;;;;;26.93;23.95;99828.69;4952865;28;8976;-70
2023/09/27 12:07:56;;;;;;;;;18.60;18.20;;;;;27.10;23.90;99822.75;4981027;28;8849;-72
2023/09/27 12:10:24;;;;;;;;;19.60;19.40;;;;;27.24;23.91;99825.09;4986124;28;8880;-74
2023/09/27 12:12:55;;;;;;;;;19.40;18.60;;;;;27.33;23.95;99815.34;4971005;28;8859;-74
2023/09/27 12:15:25;;;;;;;;;17.80;17.40;;;;;27.51;24.12;99818.25;4968591;28;8879;-76
2023/09/27 12:17:53;;;;;;;;;18.60;18.20;;;;;27.16;23.87;99819.50;4968266;28;8870;-75
2023/09/27 12:20:22;;;;;;;;;16.00;16.00;;;;;26.81;23.70;99820.66;4919213;28;9132;-76
2023/09/27 12:23:07;;;;;;;;;20.20;17.20;;;;;26.60;23.71;99819.78;4968252;28;8852;-76
2023/09/27 12:25:36;;;;;;;;;15.80;15.80;;;;;26.68;23.90;99814.59;4966861;28;8871;-72
2023/09/27 12:28:07;;;;;;;;;19.80;17.80;;;;;26.59;23.73;99818.94;4968135;28;8906;-74
2023/09/27 12:30:35;;;;;;;;;17.40;17.40;;;;;26.55;23.90;99808.53;4968330;28;8875;-73
2023/09/27 12:33:04;;;;;;;;;22.60;21.40;;;;;26.43;24.10;99808.53;4949923;28;8856;-75
2023/09/27 12:35:33;;;;;;;;;24.40;17.80;;;;;26.32;24.56;99829.28;4934984;28;8910;-71
2023/09/27 12:38:05;;;;;;;;;18.00;15.80;;;;;26.04;24.44;99810.88;4969722;28;8855;-74
2023/09/27 12:40:34;;;;;;;;;18.00;17.40;;;;;25.95;24.39;99803.53;4972417;28;8953;-73
2023/09/27 12:43:04;;;;;;;;;18.40;18.00;;;;;25.60;25.33;99815.28;4971610;28;8883;-73
2023/09/27 12:45:34;;;;;;;;;19.00;19.00;;;;;25.65;25.21;99815.78;4969573;28;8875;-73
2023/09/27 12:48:04;;;;;;;;;15.20;14.00;;;;;25.49;25.11;99807.19;4960015;28;8878;-74
2023/09/27 12:50:33;;;;;;;;;18.20;16.60;;;;;25.49;25.53;99789.25;4968667;28;8983;-74
2023/09/27 12:53:03;;;;;;;;;15.40;14.60;;;;;25.49;25.20;99804.50;4963307;28;8985;-74
2023/09/27 12:55:32;;;;;;;;;15.80;15.80;;;;;25.55;25.05;99792.41;4968000;28;8936;-73
2023/09/27 12:58:01;;;;;;;;;20.20;19.20;;;;;25.63;25.34;99788.13;4955967;28;8886;-72
2023/09/27 13:00:30;;;;;;;;;19.00;16.80;;;;;25.37;25.42;99790.19;4955101;28;8866;-75
2023/09/27 13:03:01;;;;;;;;;18.40;18.40;;;;;25.45;25.61;99787.75;4954029;28;8862;-75
2023/09/27 13:05:30;;;;;;;;;19.20;17.20;;;;;25.45;25.38;99794.97;4964748;28;8859;-74
2023/09/27 13:07:59;;;;;;;;;17.80;17.20;;;;;25.42;25.17;99787.16;4971671;28;9092;-73
2023/09/27 13:10:27;;;;;;;;;19.00;19.00;;;;;25.47;25.75;99783.13;4965111;28;8868;-72
2023/09/27 13:12:57;;;;;;;;;22.40;21.40;;;;;25.44;25.17;99774.44;4968383;28;9657;-76
2023/09/27 13:15:25;;;;;;;;;21.20;19.00;;;;;25.50;25.63;99780.16;4970824;28;8901;-73
2023/09/27 13:17:54;;;;;;;;;28.40;27.60;;;;;25.72;25.78;99778.47;4971097;28;8887;-74
2023/09/27 13:20:25;;;;;;;;;22.20;20.80;;;;;25.35;25.04;99777.84;4970733;28;8961;-75
2023/09/27 13:22:54;;;;;;;;;22.00;20.00;;;;;25.23;25.62;99771.59;4953415;28;8922;-73